createdAt,value
2017-07-29T00:00:44.407Z,968.63
2017-07-29T00:01:44.400Z,968.61
2017-07-29T00:02:44.397Z,968.66
2017-07-29T00:03:44.392Z,968.63
2017-07-29T00:04:44.389Z,968.6
2017-07-29T00:05:44.384Z,968.64
2017-07-29T00:06:44.379Z,968.63
2017-07-29T00:07:44.524Z,968.64
2017-07-29T00:08:44.370Z,968.62
2017-07-29T00:09:44.365Z,968.65
2017-07-29T00:10:44.361Z,968.64
2017-07-29T00:11:44.356Z,968.62
2017-07-29T00:12:44.351Z,968.68
2017-07-29T00:13:44.348Z,968.64
2017-07-29T00:14:44.344Z,968.66
2017-07-29T00:15:44.339Z,968.65
2017-07-29T00:16:44.332Z,968.64
2017-07-29T00:17:44.331Z,968.64
2017-07-29T00:18:44.325Z,968.61
2017-07-29T00:19:44.420Z,968.62
2017-07-29T00:20:44.316Z,968.64
2017-07-29T00:21:44.310Z,968.63
2017-07-29T00:22:44.305Z,968.61
2017-07-29T00:23:44.300Z,968.63
2017-07-29T00:24:44.396Z,968.69
2017-07-29T00:25:44.293Z,968.68
2017-07-29T00:26:44.289Z,968.67
2017-07-29T00:27:44.282Z,968.69
2017-07-29T00:28:44.379Z,968.62
2017-07-29T00:29:44.274Z,968.65
2017-07-29T00:30:44.271Z,968.64
2017-07-29T00:31:44.265Z,968.68
2017-07-29T00:32:44.259Z,968.69
2017-07-29T00:33:44.356Z,968.68
2017-07-29T00:34:44.252Z,968.7
2017-07-29T00:35:44.247Z,968.68
2017-07-29T00:36:44.242Z,968.7
2017-07-29T00:37:44.238Z,968.69
2017-07-29T00:38:44.232Z,968.68
2017-07-29T00:39:44.228Z,968.69
2017-07-29T00:40:44.225Z,968.67
2017-07-29T00:41:44.226Z,968.72
2017-07-29T00:42:44.215Z,968.71
2017-07-29T00:43:44.211Z,968.69
2017-07-29T00:44:44.206Z,968.7
2017-07-29T00:45:44.201Z,968.71
2017-07-29T00:46:44.196Z,968.74
2017-07-29T00:47:44.193Z,968.73
2017-07-29T00:48:44.189Z,968.69
2017-07-29T00:49:44.283Z,968.71
2017-07-29T00:50:44.179Z,968.73
2017-07-29T00:51:44.174Z,968.69
2017-07-29T00:52:44.169Z,968.71
2017-07-29T00:53:44.164Z,968.7
2017-07-29T00:54:44.159Z,968.73
2017-07-29T00:55:44.156Z,968.7
2017-07-29T00:56:44.150Z,968.68
2017-07-29T00:57:44.146Z,968.67
2017-07-29T00:58:44.246Z,968.67
2017-07-29T00:59:44.137Z,968.64
2017-07-29T01:00:44.233Z,968.62
2017-07-29T01:01:44.130Z,968.62
2017-07-29T01:02:44.123Z,968.61
2017-07-29T01:03:44.121Z,968.65
2017-07-29T01:04:44.115Z,968.65
2017-07-29T01:05:44.109Z,968.7
2017-07-29T01:06:44.105Z,968.67
2017-07-29T01:07:44.099Z,968.66
2017-07-29T01:08:44.097Z,968.64
2017-07-29T01:09:44.092Z,968.66
2017-07-29T01:10:44.087Z,968.63
2017-07-29T01:11:44.081Z,968.62
2017-07-29T01:12:44.079Z,968.59
2017-07-29T01:13:44.073Z,968.61
2017-07-29T01:14:44.069Z,968.6
2017-07-29T01:15:44.065Z,968.6
2017-07-29T01:16:44.062Z,968.53
2017-07-29T01:17:44.056Z,968.57
2017-07-29T01:18:44.050Z,968.52
2017-07-29T01:19:44.048Z,968.5
2017-07-29T01:20:44.041Z,968.51
2017-07-29T01:21:44.139Z,968.47
2017-07-29T01:22:44.036Z,968.48
2017-07-29T01:23:44.027Z,968.47
2017-07-29T01:24:44.024Z,968.51
2017-07-29T01:25:44.018Z,968.49
2017-07-29T01:26:44.014Z,968.48
2017-07-29T01:27:44.008Z,968.46
2017-07-29T01:28:44.006Z,968.45
2017-07-29T01:29:44.005Z,968.46
2017-07-29T01:30:43.996Z,968.42
2017-07-29T01:31:44.142Z,968.4
2017-07-29T01:32:43.988Z,968.42
2017-07-29T01:33:43.982Z,968.42
2017-07-29T01:34:43.978Z,968.43
2017-07-29T01:35:43.971Z,968.41
2017-07-29T01:36:43.968Z,968.4
2017-07-29T01:37:43.964Z,968.38
2017-07-29T01:38:43.959Z,968.43
2017-07-29T01:39:43.955Z,968.46
2017-07-29T01:40:43.950Z,968.45
2017-07-29T01:41:43.945Z,968.43
2017-07-29T01:42:43.943Z,968.43
2017-07-29T01:43:43.938Z,968.44
2017-07-29T01:44:43.932Z,968.45
2017-07-29T01:45:43.927Z,968.42
2017-07-29T01:46:43.923Z,968.41
2017-07-29T01:47:43.917Z,968.43
2017-07-29T01:48:43.914Z,968.38
2017-07-29T01:49:43.908Z,968.37
2017-07-29T01:50:43.904Z,968.4
2017-07-29T01:51:43.898Z,968.37
2017-07-29T01:52:44.047Z,968.36
2017-07-29T01:53:43.889Z,968.4
2017-07-29T01:54:43.885Z,968.35
2017-07-29T01:55:43.880Z,968.35
2017-07-29T01:56:43.876Z,968.35
2017-07-29T01:57:43.870Z,968.34
2017-07-29T01:58:43.864Z,968.33
2017-07-29T01:59:43.863Z,968.35
2017-07-29T02:00:43.857Z,968.37
2017-07-29T02:01:43.853Z,968.35
2017-07-29T02:02:43.848Z,968.36
2017-07-29T02:03:43.844Z,968.36
2017-07-29T02:04:43.839Z,968.36
2017-07-29T02:05:43.934Z,968.39
2017-07-29T02:06:43.830Z,968.38
2017-07-29T02:07:43.825Z,968.4
2017-07-29T02:08:43.819Z,968.38
2017-07-29T02:09:43.817Z,968.4
2017-07-29T02:10:43.811Z,968.44
2017-07-29T02:11:43.806Z,968.41
2017-07-29T02:12:43.801Z,968.39
2017-07-29T02:13:43.796Z,968.39
2017-07-29T02:14:43.792Z,968.44
2017-07-29T02:15:43.790Z,968.45
2017-07-29T02:16:43.784Z,968.42
2017-07-29T02:17:43.777Z,968.41
2017-07-29T02:18:43.774Z,968.42
2017-07-29T02:19:43.870Z,968.38
2017-07-29T02:20:43.764Z,968.43
2017-07-29T02:21:43.758Z,968.41
2017-07-29T02:22:43.755Z,968.45
2017-07-29T02:23:43.751Z,968.42
2017-07-29T02:24:43.895Z,968.44
2017-07-29T02:25:43.740Z,968.46
2017-07-29T02:26:43.736Z,968.48
2017-07-29T02:27:43.731Z,968.46
2017-07-29T02:28:43.725Z,968.51
2017-07-29T02:29:43.722Z,968.49
2017-07-29T02:30:43.715Z,968.48
2017-07-29T02:31:43.717Z,968.52
2017-07-29T02:32:43.707Z,968.52
2017-07-29T02:33:43.702Z,968.52
2017-07-29T02:34:43.699Z,968.53
2017-07-29T02:35:43.694Z,968.56
2017-07-29T02:36:43.690Z,968.6
2017-07-29T02:37:43.685Z,968.58
2017-07-29T02:38:43.783Z,968.56
2017-07-29T02:39:43.676Z,968.56
2017-07-29T02:40:43.669Z,968.6
2017-07-29T02:41:43.665Z,968.6
2017-07-29T02:42:43.661Z,968.63
2017-07-29T02:43:43.657Z,968.58
2017-07-29T02:44:43.652Z,968.57
2017-07-29T02:45:43.648Z,968.58
2017-07-29T02:46:43.641Z,968.56
2017-07-29T02:47:43.636Z,968.57
2017-07-29T02:48:43.734Z,968.55
2017-07-29T02:49:43.628Z,968.55
2017-07-29T02:50:43.724Z,968.55
2017-07-29T02:51:43.619Z,968.5
2017-07-29T02:52:43.713Z,968.53
2017-07-29T02:53:43.609Z,968.51
2017-07-29T02:54:43.604Z,968.53
2017-07-29T02:55:43.600Z,968.5
2017-07-29T02:56:43.597Z,968.51
2017-07-29T02:57:43.591Z,968.48
2017-07-29T02:58:43.748Z,968.49
2017-07-29T02:59:43.581Z,968.47
2017-07-29T03:00:43.577Z,968.5
2017-07-29T03:01:43.571Z,968.56
2017-07-29T03:02:43.567Z,968.55
2017-07-29T03:03:43.562Z,968.57
2017-07-29T03:04:43.557Z,968.57
2017-07-29T03:05:43.552Z,968.57
2017-07-29T03:06:43.549Z,968.58
2017-07-29T03:07:43.543Z,968.53
2017-07-29T03:08:43.643Z,968.53
2017-07-29T03:09:43.537Z,968.53
2017-07-29T03:10:43.531Z,968.54
2017-07-29T03:11:43.524Z,968.55
2017-07-29T03:12:43.520Z,968.58
2017-07-29T03:13:43.517Z,968.56
2017-07-29T03:14:43.514Z,968.56
2017-07-29T03:15:43.503Z,968.57
2017-07-29T03:16:43.501Z,968.54
2017-07-29T03:17:43.497Z,968.57
2017-07-29T03:18:43.493Z,968.62
2017-07-29T03:19:43.486Z,968.57
2017-07-29T03:20:43.486Z,968.55
2017-07-29T03:21:43.478Z,968.58
2017-07-29T03:22:43.572Z,968.57
2017-07-29T03:23:43.468Z,968.58
2017-07-29T03:24:43.464Z,968.58
2017-07-29T03:25:43.458Z,968.57
2017-07-29T03:26:43.453Z,968.58
2017-07-29T03:27:43.448Z,968.56
2017-07-29T03:28:43.444Z,968.56
2017-07-29T03:29:43.438Z,968.53
2017-07-29T03:30:43.434Z,968.55
2017-07-29T03:31:43.531Z,968.56
2017-07-29T03:32:43.424Z,968.59
2017-07-29T03:33:43.418Z,968.58
2017-07-29T03:34:43.415Z,968.6
2017-07-29T03:35:43.410Z,968.6
2017-07-29T03:36:43.405Z,968.63
2017-07-29T03:37:43.401Z,968.66
2017-07-29T03:38:43.397Z,968.67
2017-07-29T03:39:43.391Z,968.69
2017-07-29T03:40:43.388Z,968.73
2017-07-29T03:41:43.382Z,968.72
2017-07-29T03:42:43.378Z,968.75
2017-07-29T03:43:43.523Z,968.75
2017-07-29T03:44:43.368Z,968.78
2017-07-29T03:45:43.363Z,968.74
2017-07-29T03:46:43.358Z,968.74
2017-07-29T03:47:43.354Z,968.75
2017-07-29T03:48:43.448Z,968.72
2017-07-29T03:49:43.344Z,968.72
2017-07-29T03:50:43.437Z,968.72
2017-07-29T03:51:43.334Z,968.71
2017-07-29T03:52:43.330Z,968.7
2017-07-29T03:53:43.324Z,968.75
2017-07-29T03:54:43.421Z,968.73
2017-07-29T03:55:43.314Z,968.72
2017-07-29T03:56:43.310Z,968.76
2017-07-29T03:57:43.306Z,968.77
2017-07-29T03:58:43.302Z,968.75
2017-07-29T03:59:43.294Z,968.8
2017-07-29T04:00:43.291Z,968.78
2017-07-29T04:01:43.286Z,968.78
2017-07-29T04:02:43.281Z,968.8
2017-07-29T04:03:43.276Z,968.81
2017-07-29T04:04:43.272Z,968.79
2017-07-29T04:05:43.267Z,968.81
2017-07-29T04:06:43.263Z,968.84
2017-07-29T04:07:43.258Z,968.79
2017-07-29T04:08:43.253Z,968.82
2017-07-29T04:09:43.248Z,968.82
2017-07-29T04:10:43.416Z,968.85
2017-07-29T04:11:43.240Z,968.86
2017-07-29T04:12:43.233Z,968.84
2017-07-29T04:13:43.229Z,968.9
2017-07-29T04:14:43.223Z,968.89
2017-07-29T04:15:43.371Z,968.87
2017-07-29T04:16:43.215Z,968.92
2017-07-29T04:17:43.209Z,968.93
2017-07-29T04:18:43.204Z,968.93
2017-07-29T04:19:43.201Z,968.94
2017-07-29T04:20:43.195Z,968.93
2017-07-29T04:21:43.189Z,968.92
2017-07-29T04:22:43.186Z,968.9
2017-07-29T04:23:43.182Z,968.92
2017-07-29T04:24:43.175Z,968.95
2017-07-29T04:25:43.176Z,968.9
2017-07-29T04:26:43.267Z,968.98
2017-07-29T04:27:43.263Z,968.96
2017-07-29T04:28:43.158Z,968.96
2017-07-29T04:29:43.152Z,968.96
2017-07-29T04:30:43.150Z,968.97
2017-07-29T04:31:43.295Z,969
2017-07-29T04:32:43.138Z,969.03
2017-07-29T04:33:43.133Z,969.03
2017-07-29T04:34:43.230Z,969.08
2017-07-29T04:35:43.123Z,969.05
2017-07-29T04:36:43.119Z,969.06
2017-07-29T04:37:43.115Z,969.1
2017-07-29T04:38:43.212Z,969.08
2017-07-29T04:39:43.104Z,969.07
2017-07-29T04:40:43.101Z,969.08
2017-07-29T04:41:43.096Z,969.11
2017-07-29T04:42:43.092Z,969.1
2017-07-29T04:43:43.086Z,969.08
2017-07-29T04:44:43.081Z,969.12
2017-07-29T04:45:43.080Z,969.14
2017-07-29T04:46:43.071Z,969.1
2017-07-29T04:47:43.068Z,969.14
2017-07-29T04:48:43.063Z,969.13
2017-07-29T04:49:43.059Z,969.08
2017-07-29T04:50:43.154Z,969.11
2017-07-29T04:51:43.049Z,969.1
2017-07-29T04:52:43.046Z,969.12
2017-07-29T04:53:43.042Z,969.12
2017-07-29T04:54:43.037Z,969.11
2017-07-29T04:55:43.033Z,969.11
2017-07-29T04:56:43.029Z,969.1
2017-07-29T04:57:43.023Z,969.07
2017-07-29T04:58:43.019Z,969.1
2017-07-29T04:59:43.013Z,969.1
2017-07-29T05:00:43.010Z,969.1
2017-07-29T05:01:43.005Z,969.13
2017-07-29T05:02:43.000Z,969.1
2017-07-29T05:03:42.997Z,969.07
2017-07-29T05:04:42.993Z,969.05
2017-07-29T05:05:42.987Z,969.06
2017-07-29T05:06:42.983Z,969.08
2017-07-29T05:07:42.980Z,969.07
2017-07-29T05:08:43.074Z,969.09
2017-07-29T05:09:42.970Z,969.1
2017-07-29T05:10:43.067Z,969.08
2017-07-29T05:11:42.964Z,969.07
2017-07-29T05:12:42.958Z,969.1
2017-07-29T05:13:42.956Z,969.11
2017-07-29T05:14:42.952Z,969.1
2017-07-29T05:15:42.948Z,969.09
2017-07-29T05:16:42.943Z,969.1
2017-07-29T05:17:42.938Z,969.12
2017-07-29T05:18:43.085Z,969.14
2017-07-29T05:19:42.930Z,969.13
2017-07-29T05:20:42.927Z,969.14
2017-07-29T05:21:42.924Z,969.16
2017-07-29T05:22:42.921Z,969.16
2017-07-29T05:23:42.916Z,969.22
2017-07-29T05:24:42.912Z,969.23
2017-07-29T05:25:42.912Z,969.25
2017-07-29T05:26:43.106Z,969.25
2017-07-29T05:27:42.901Z,969.27
2017-07-29T05:28:42.898Z,969.31
2017-07-29T05:29:42.895Z,969.29
2017-07-29T05:30:42.890Z,969.33
2017-07-29T05:31:42.887Z,969.26
2017-07-29T05:32:42.884Z,969.27
2017-07-29T05:33:42.881Z,969.26
2017-07-29T05:34:43.027Z,969.25
2017-07-29T05:35:42.875Z,969.22
2017-07-29T05:36:42.872Z,969.24
2017-07-29T05:37:42.873Z,969.21
2017-07-29T05:38:42.866Z,969.21
2017-07-29T05:39:42.862Z,969.21
2017-07-29T05:40:42.858Z,969.2
2017-07-29T05:41:42.856Z,969.22
2017-07-29T05:42:42.853Z,969.21
2017-07-29T05:43:42.850Z,969.21
2017-07-29T05:44:42.848Z,969.2
2017-07-29T05:45:42.844Z,969.24
2017-07-29T05:46:42.841Z,969.2
2017-07-29T05:47:42.939Z,969.21
2017-07-29T05:48:42.836Z,969.19
2017-07-29T05:49:42.833Z,969.19
2017-07-29T05:50:42.931Z,969.22
2017-07-29T05:51:42.830Z,969.22
2017-07-29T05:52:42.827Z,969.24
2017-07-29T05:53:42.823Z,969.24
2017-07-29T05:54:42.823Z,969.24
2017-07-29T05:55:42.821Z,969.25
2017-07-29T05:56:42.822Z,969.29
2017-07-29T05:57:42.815Z,969.32
2017-07-29T05:58:42.913Z,969.36
2017-07-29T05:59:42.812Z,969.39
2017-07-29T06:00:42.811Z,969.42
2017-07-29T06:01:42.810Z,969.42
2017-07-29T06:02:42.806Z,969.47
2017-07-29T06:03:42.805Z,969.44
2017-07-29T06:04:42.904Z,969.45
2017-07-29T06:05:42.801Z,969.47
2017-07-29T06:06:42.801Z,969.48
2017-07-29T06:07:42.796Z,969.41
2017-07-29T06:08:42.796Z,969.44
2017-07-29T06:09:42.799Z,969.45
2017-07-29T06:10:42.791Z,969.47
2017-07-29T06:11:42.789Z,969.44
2017-07-29T06:12:42.789Z,969.46
2017-07-29T06:13:42.788Z,969.49
2017-07-29T06:14:42.786Z,969.45
2017-07-29T06:15:42.783Z,969.39
2017-07-29T06:16:42.781Z,969.41
2017-07-29T06:17:42.781Z,969.42
2017-07-29T06:18:42.778Z,969.39
2017-07-29T06:19:42.776Z,969.39
2017-07-29T06:20:42.774Z,969.39
2017-07-29T06:21:42.872Z,969.39
2017-07-29T06:22:42.770Z,969.42
2017-07-29T06:23:42.769Z,969.42
2017-07-29T06:24:42.768Z,969.44
2017-07-29T06:25:42.764Z,969.44
2017-07-29T06:26:42.763Z,969.44
2017-07-29T06:27:42.762Z,969.47
2017-07-29T06:28:42.761Z,969.44
2017-07-29T06:29:42.856Z,969.42
2017-07-29T06:30:42.756Z,969.46
2017-07-29T06:31:42.753Z,969.47
2017-07-29T06:32:42.751Z,969.5
2017-07-29T06:33:42.748Z,969.49
2017-07-29T06:34:42.747Z,969.43
2017-07-29T06:35:42.745Z,969.47
2017-07-29T06:36:42.743Z,969.46
2017-07-29T06:37:42.740Z,969.52
2017-07-29T06:38:42.739Z,969.49
2017-07-29T06:39:42.736Z,969.45
2017-07-29T06:40:42.733Z,969.46
2017-07-29T06:41:42.732Z,969.47
2017-07-29T06:42:42.730Z,969.46
2017-07-29T06:43:42.731Z,969.48
2017-07-29T06:44:42.725Z,969.5
2017-07-29T06:45:42.827Z,969.54
2017-07-29T06:46:42.721Z,969.57
2017-07-29T06:47:42.718Z,969.58
2017-07-29T06:48:42.716Z,969.61
2017-07-29T06:49:42.713Z,969.61
2017-07-29T06:50:42.712Z,969.62
2017-07-29T06:51:42.710Z,969.59
2017-07-29T06:52:42.708Z,969.64
2017-07-29T06:53:42.705Z,969.59
2017-07-29T06:54:42.701Z,969.62
2017-07-29T06:55:42.701Z,969.62
2017-07-29T06:56:42.699Z,969.59
2017-07-29T06:57:42.700Z,969.59
2017-07-29T06:58:42.700Z,969.62
2017-07-29T06:59:42.793Z,969.6
2017-07-29T07:00:42.692Z,969.58
2017-07-29T07:01:42.690Z,969.59
2017-07-29T07:02:42.688Z,969.53
2017-07-29T07:03:42.690Z,969.53
2017-07-29T07:04:42.685Z,969.56
2017-07-29T07:05:42.684Z,969.55
2017-07-29T07:06:42.682Z,969.58
2017-07-29T07:07:42.680Z,969.59
2017-07-29T07:08:42.678Z,969.61
2017-07-29T07:09:42.674Z,969.63
2017-07-29T07:10:42.673Z,969.63
2017-07-29T07:11:42.670Z,969.59
2017-07-29T07:12:42.671Z,969.63
2017-07-29T07:13:42.668Z,969.61
2017-07-29T07:14:42.815Z,969.63
2017-07-29T07:15:42.665Z,969.54
2017-07-29T07:16:42.661Z,969.56
2017-07-29T07:17:42.660Z,969.6
2017-07-29T07:18:42.658Z,969.59
2017-07-29T07:19:42.657Z,969.63
2017-07-29T07:20:42.754Z,969.6
2017-07-29T07:21:42.651Z,969.59
2017-07-29T07:22:42.648Z,969.59
2017-07-29T07:23:42.651Z,969.63
2017-07-29T07:24:42.646Z,969.63
2017-07-29T07:25:42.645Z,969.64
2017-07-29T07:26:42.644Z,969.62
2017-07-29T07:27:42.640Z,969.66
2017-07-29T07:28:42.639Z,969.64
2017-07-29T07:29:42.638Z,969.64
2017-07-29T07:30:42.637Z,969.64
2017-07-29T07:31:42.636Z,969.65
2017-07-29T07:32:42.633Z,969.68
2017-07-29T07:33:42.632Z,969.71
2017-07-29T07:34:42.630Z,969.67
2017-07-29T07:35:42.730Z,969.73
2017-07-29T07:36:42.628Z,969.74
2017-07-29T07:37:42.626Z,969.72
2017-07-29T07:38:42.623Z,969.7
2017-07-29T07:39:42.623Z,969.71
2017-07-29T07:40:42.622Z,969.72
2017-07-29T07:41:42.621Z,969.7
2017-07-29T07:42:42.617Z,969.73
2017-07-29T07:43:42.616Z,969.72
2017-07-29T07:44:42.613Z,969.72
2017-07-29T07:45:42.611Z,969.71
2017-07-29T07:46:42.611Z,969.69
2017-07-29T07:47:42.708Z,969.68
2017-07-29T07:48:42.758Z,969.65
2017-07-29T07:49:42.604Z,969.65
2017-07-29T07:50:42.602Z,969.65
2017-07-29T07:51:42.603Z,969.67
2017-07-29T07:52:42.701Z,969.71
2017-07-29T07:53:42.598Z,969.66
2017-07-29T07:54:42.601Z,969.7
2017-07-29T07:55:42.595Z,969.7
2017-07-29T07:56:42.694Z,969.68
2017-07-29T07:57:42.592Z,969.69
2017-07-29T07:58:42.590Z,969.74
2017-07-29T07:59:42.589Z,969.68
2017-07-29T08:00:42.586Z,969.66
2017-07-29T08:01:42.585Z,969.67
2017-07-29T08:02:42.583Z,969.68
2017-07-29T08:03:42.581Z,969.71
2017-07-29T08:04:42.580Z,969.64
2017-07-29T08:05:42.577Z,969.66
2017-07-29T08:06:42.675Z,969.68
2017-07-29T08:07:42.574Z,969.64
2017-07-29T08:08:42.570Z,969.6
2017-07-29T08:09:42.571Z,969.62
2017-07-29T08:10:42.568Z,969.6
2017-07-29T08:11:42.564Z,969.62
2017-07-29T08:12:42.664Z,969.63
2017-07-29T08:13:42.562Z,969.63
2017-07-29T08:14:42.710Z,969.59
2017-07-29T08:15:42.557Z,969.58
2017-07-29T08:16:42.554Z,969.57
2017-07-29T08:17:42.556Z,969.55
2017-07-29T08:18:42.549Z,969.61
2017-07-29T08:19:42.548Z,969.59
2017-07-29T08:20:42.694Z,969.62
2017-07-29T08:21:42.544Z,969.56
2017-07-29T08:22:42.541Z,969.56
2017-07-29T08:23:42.538Z,969.56
2017-07-29T08:24:42.537Z,969.59
2017-07-29T08:25:42.535Z,969.59
2017-07-29T08:26:42.530Z,969.55
2017-07-29T08:27:42.529Z,969.55
2017-07-29T08:28:42.526Z,969.56
2017-07-29T08:29:42.523Z,969.59
2017-07-29T08:30:42.520Z,969.58
2017-07-29T08:31:42.518Z,969.57
2017-07-29T08:32:42.517Z,969.59
2017-07-29T08:33:42.512Z,969.57
2017-07-29T08:34:42.512Z,969.56
2017-07-29T08:35:42.608Z,969.54
2017-07-29T08:36:42.506Z,969.57
2017-07-29T08:37:42.504Z,969.55
2017-07-29T08:38:42.502Z,969.52
2017-07-29T08:39:42.498Z,969.52
2017-07-29T08:40:42.495Z,969.49
2017-07-29T08:41:42.492Z,969.44
2017-07-29T08:42:42.489Z,969.45
2017-07-29T08:43:42.488Z,969.5
2017-07-29T08:44:42.633Z,969.5
2017-07-29T08:45:42.481Z,969.48
2017-07-29T08:46:42.478Z,969.57
2017-07-29T08:47:42.475Z,969.53
2017-07-29T08:48:42.473Z,969.51
2017-07-29T08:49:42.470Z,969.52
2017-07-29T08:50:42.466Z,969.49
2017-07-29T08:51:42.464Z,969.5
2017-07-29T08:52:42.461Z,969.47
2017-07-29T08:53:42.458Z,969.49
2017-07-29T08:54:42.455Z,969.44
2017-07-29T08:55:42.553Z,969.47
2017-07-29T08:56:42.449Z,969.44
2017-07-29T08:57:42.445Z,969.44
2017-07-29T08:58:42.444Z,969.43
2017-07-29T08:59:42.441Z,969.43
2017-07-29T09:00:42.540Z,969.44
2017-07-29T09:01:42.436Z,969.41
2017-07-29T09:02:42.431Z,969.41
2017-07-29T09:03:42.428Z,969.41
2017-07-29T09:04:42.426Z,969.39
2017-07-29T09:05:42.423Z,969.42
2017-07-29T09:06:42.421Z,969.38
2017-07-29T09:07:42.437Z,969.38
2017-07-29T09:08:42.415Z,969.32
2017-07-29T09:09:42.412Z,969.31
2017-07-29T09:10:42.411Z,969.31
2017-07-29T09:11:42.406Z,969.34
2017-07-29T09:12:42.504Z,969.35
2017-07-29T09:13:42.400Z,969.32
2017-07-29T09:14:42.399Z,969.38
2017-07-29T09:15:42.394Z,969.34
2017-07-29T09:16:42.393Z,969.35
2017-07-29T09:17:42.389Z,969.36
2017-07-29T09:18:42.386Z,969.33
2017-07-29T09:19:42.383Z,969.34
2017-07-29T09:20:42.379Z,969.36
2017-07-29T09:21:42.376Z,969.36
2017-07-29T09:22:42.475Z,969.35
2017-07-29T09:23:42.372Z,969.37
2017-07-29T09:24:42.368Z,969.39
2017-07-29T09:25:42.365Z,969.36
2017-07-29T09:26:42.467Z,969.34
2017-07-29T09:27:42.360Z,969.32
2017-07-29T09:28:42.357Z,969.31
2017-07-29T09:29:42.353Z,969.32
2017-07-29T09:30:42.351Z,969.29
2017-07-29T09:31:42.498Z,969.33
2017-07-29T09:32:42.345Z,969.31
2017-07-29T09:33:42.344Z,969.31
2017-07-29T09:34:42.340Z,969.31
2017-07-29T09:35:42.337Z,969.31
2017-07-29T09:36:42.334Z,969.3
2017-07-29T09:37:42.330Z,969.34
2017-07-29T09:38:42.328Z,969.28
2017-07-29T09:39:42.325Z,969.35
2017-07-29T09:40:42.323Z,969.34
2017-07-29T09:41:42.320Z,969.3
2017-07-29T09:42:42.318Z,969.29
2017-07-29T09:43:42.313Z,969.33
2017-07-29T09:44:42.312Z,969.32
2017-07-29T09:45:42.409Z,969.36
2017-07-29T09:46:42.306Z,969.36
2017-07-29T09:47:42.303Z,969.3
2017-07-29T09:48:42.300Z,969.33
2017-07-29T09:49:42.298Z,969.33
2017-07-29T09:50:42.293Z,969.29
2017-07-29T09:51:42.291Z,969.31
2017-07-29T09:52:42.289Z,969.31
2017-07-29T09:53:42.286Z,969.28
2017-07-29T09:54:42.283Z,969.3
2017-07-29T09:55:42.282Z,969.31
2017-07-29T09:56:42.278Z,969.31
2017-07-29T09:57:42.279Z,969.33
2017-07-29T09:58:42.372Z,969.29
2017-07-29T09:59:42.270Z,969.32
2017-07-29T10:00:42.266Z,969.29
2017-07-29T10:01:42.263Z,969.27
2017-07-29T10:02:42.260Z,969.27
2017-07-29T10:03:42.409Z,969.3
2017-07-29T10:04:42.254Z,969.33
2017-07-29T10:05:42.252Z,969.27
2017-07-29T10:06:42.250Z,969.29
2017-07-29T10:07:42.246Z,969.3
2017-07-29T10:08:42.243Z,969.29
2017-07-29T10:09:42.241Z,969.25
2017-07-29T10:10:42.239Z,969.25
2017-07-29T10:11:42.235Z,969.22
2017-07-29T10:12:42.230Z,969.24
2017-07-29T10:13:42.228Z,969.26
2017-07-29T10:14:42.226Z,969.28
2017-07-29T10:15:42.222Z,969.22
2017-07-29T10:16:42.220Z,969.25
2017-07-29T10:17:42.217Z,969.24
2017-07-29T10:18:42.214Z,969.25
2017-07-29T10:19:42.211Z,969.25
2017-07-29T10:20:42.210Z,969.21
2017-07-29T10:21:42.205Z,969.19
2017-07-29T10:22:42.326Z,969.12
2017-07-29T10:23:42.199Z,969.12
2017-07-29T10:24:42.197Z,969.1
2017-07-29T10:25:42.193Z,969.12
2017-07-29T10:26:42.290Z,969.08
2017-07-29T10:27:42.189Z,969.1
2017-07-29T10:28:42.185Z,969.09
2017-07-29T10:29:42.184Z,969.13
2017-07-29T10:30:42.179Z,969.11
2017-07-29T10:31:42.178Z,969.1
2017-07-29T10:32:42.173Z,969.09
2017-07-29T10:33:42.171Z,969.07
2017-07-29T10:34:42.168Z,969.07
2017-07-29T10:35:42.168Z,969.07
2017-07-29T10:36:42.163Z,969.08
2017-07-29T10:37:42.159Z,969.08
2017-07-29T10:38:42.308Z,969.04
2017-07-29T10:39:42.153Z,969.06
2017-07-29T10:40:42.151Z,969.03
2017-07-29T10:41:42.148Z,969.04
2017-07-29T10:42:42.144Z,969.01
2017-07-29T10:43:42.142Z,969.03
2017-07-29T10:44:42.140Z,968.98
2017-07-29T10:45:42.135Z,968.97
2017-07-29T10:46:42.134Z,968.98
2017-07-29T10:47:42.130Z,969
2017-07-29T10:48:42.127Z,968.98
2017-07-29T10:49:42.125Z,969
2017-07-29T10:50:42.223Z,968.93
2017-07-29T10:51:42.120Z,968.95
2017-07-29T10:52:42.123Z,968.94
2017-07-29T10:53:42.264Z,968.96
2017-07-29T10:54:42.110Z,968.94
2017-07-29T10:55:42.106Z,968.91
2017-07-29T10:56:42.104Z,968.93
2017-07-29T10:57:42.101Z,968.91
2017-07-29T10:58:42.098Z,968.86
2017-07-29T10:59:42.117Z,968.88
2017-07-29T11:00:42.091Z,968.86
2017-07-29T11:01:42.088Z,968.88
2017-07-29T11:02:42.088Z,968.87
2017-07-29T11:03:42.084Z,968.86
2017-07-29T11:04:42.081Z,968.86
2017-07-29T11:05:42.077Z,968.83
2017-07-29T11:06:42.074Z,968.82
2017-07-29T11:07:42.176Z,968.79
2017-07-29T11:08:42.068Z,968.78
2017-07-29T11:09:42.215Z,968.73
2017-07-29T11:10:42.063Z,968.72
2017-07-29T11:11:42.057Z,968.77
2017-07-29T11:12:42.057Z,968.71
2017-07-29T11:13:42.054Z,968.71
2017-07-29T11:14:42.049Z,968.74
2017-07-29T11:15:42.046Z,968.71
2017-07-29T11:16:42.043Z,968.75
2017-07-29T11:17:42.039Z,968.72
2017-07-29T11:18:42.037Z,968.69
2017-07-29T11:19:42.035Z,968.68
2017-07-29T11:20:42.031Z,968.66
2017-07-29T11:21:42.028Z,968.7
2017-07-29T11:22:42.026Z,968.68
2017-07-29T11:23:42.024Z,968.71
2017-07-29T11:24:42.020Z,968.67
2017-07-29T11:25:42.016Z,968.64
2017-07-29T11:26:42.014Z,968.69
2017-07-29T11:27:42.010Z,968.67
2017-07-29T11:28:42.005Z,968.7
2017-07-29T11:29:42.003Z,968.67
2017-07-29T11:30:42.154Z,968.64
2017-07-29T11:31:41.998Z,968.64
2017-07-29T11:32:41.995Z,968.63
2017-07-29T11:33:41.992Z,968.62
2017-07-29T11:34:41.989Z,968.61
2017-07-29T11:35:42.086Z,968.56
2017-07-29T11:36:41.982Z,968.59
2017-07-29T11:37:41.979Z,968.6
2017-07-29T11:38:41.982Z,968.58
2017-07-29T11:39:41.971Z,968.53
2017-07-29T11:40:41.970Z,968.48
2017-07-29T11:41:41.967Z,968.46
2017-07-29T11:42:41.964Z,968.47
2017-07-29T11:43:41.959Z,968.42
2017-07-29T11:44:41.956Z,968.4
2017-07-29T11:45:41.954Z,968.47
2017-07-29T11:46:42.051Z,968.45
2017-07-29T11:47:41.947Z,968.42
2017-07-29T11:48:41.945Z,968.39
2017-07-29T11:49:41.943Z,968.38
2017-07-29T11:50:41.939Z,968.38
2017-07-29T11:51:41.936Z,968.34
2017-07-29T11:52:41.933Z,968.34
2017-07-29T11:53:41.932Z,968.35
2017-07-29T11:54:41.925Z,968.33
2017-07-29T11:55:41.924Z,968.32
2017-07-29T11:56:41.919Z,968.3
2017-07-29T11:57:41.918Z,968.31
2017-07-29T11:58:41.912Z,968.27
2017-07-29T11:59:41.910Z,968.21
2017-07-29T12:00:41.907Z,968.26
2017-07-29T12:01:41.902Z,968.22
2017-07-29T12:02:42.051Z,968.21
2017-07-29T12:03:41.897Z,968.22
2017-07-29T12:04:41.897Z,968.2
2017-07-29T12:05:41.894Z,968.22
2017-07-29T12:06:41.888Z,968.2
2017-07-29T12:07:41.984Z,968.17
2017-07-29T12:08:41.883Z,968.2
2017-07-29T12:09:41.979Z,968.15
2017-07-29T12:10:41.876Z,968.13
2017-07-29T12:11:41.873Z,968.11
2017-07-29T12:12:41.867Z,968.08
2017-07-29T12:13:41.867Z,968.07
2017-07-29T12:14:41.863Z,968.04
2017-07-29T12:15:41.861Z,968.02
2017-07-29T12:16:41.856Z,968.02
2017-07-29T12:17:41.854Z,968.05
2017-07-29T12:18:41.851Z,968.08
2017-07-29T12:19:41.849Z,968.05
2017-07-29T12:20:41.846Z,968.05
2017-07-29T12:21:41.844Z,968.02
2017-07-29T12:22:41.840Z,968.04
2017-07-29T12:23:41.835Z,968.03
2017-07-29T12:24:41.832Z,968
2017-07-29T12:25:41.831Z,968.03
2017-07-29T12:26:41.829Z,968.06
2017-07-29T12:27:41.825Z,968.04
2017-07-29T12:28:41.923Z,968.04
2017-07-29T12:29:41.818Z,968.06
2017-07-29T12:30:41.815Z,968.02
2017-07-29T12:31:41.832Z,968.04